createdAt,value
2023-03-29T00:03:23.713Z,33.80
2023-03-29T00:08:00.412Z,36.00
2023-03-29T00:11:48.427Z,29.20
2023-03-29T00:15:36.400Z,27.80
2023-03-29T00:19:23.866Z,28.20
2023-03-29T00:23:11.411Z,27.00
2023-03-29T00:27:00.666Z,23.80
2023-03-29T00:30:49.039Z,35.40
2023-03-29T00:34:37.479Z,32.40
2023-03-29T00:46:19.330Z,44.10
2023-03-29T00:49:48.202Z,27.10
2023-03-29T00:53:29.737Z,32.20
2023-03-29T00:57:10.564Z,28.70
2023-03-29T01:00:50.977Z,30.20
2023-03-29T01:04:31.007Z,30.30
2023-03-29T01:20:39.907Z,23.70
2023-03-29T01:36:20.717Z,20.40
2023-03-29T01:40:09.843Z,19.00
2023-03-29T01:44:04.756Z,18.40
2023-03-29T01:47:53.306Z,19.60
2023-03-29T01:59:46.324Z,20.90
2023-03-29T02:03:33.965Z,21.20
2023-03-29T02:07:21.758Z,23.80
2023-03-29T02:18:34.971Z,18.00
2023-03-29T02:21:05.062Z,14.10
2023-03-29T02:24:30.219Z,15.30
2023-03-29T02:28:19.398Z,15.30
2023-03-29T02:32:11.306Z,15.90
2023-03-29T02:36:10.083Z,14.80
2023-03-29T02:51:38.698Z,21.70
2023-03-29T02:55:22.659Z,19.40
2023-03-29T02:59:11.798Z,20.50
2023-03-29T03:02:43.533Z,18.10
2023-03-29T03:06:25.702Z,16.70
2023-03-29T03:13:42.306Z,21.00
2023-03-29T03:33:01.221Z,29.80
2023-03-29T03:36:52.620Z,24.90
2023-03-29T03:40:41.873Z,26.20
2023-03-29T03:44:31.133Z,30.90
2023-03-29T04:00:16.484Z,43.90
2023-03-29T04:03:07.907Z,38.50
2023-03-29T04:06:57.120Z,38.00
2023-03-29T04:10:46.382Z,36.80
2023-03-29T04:14:35.452Z,42.20
2023-03-29T04:18:30.252Z,42.10
2023-03-29T04:22:19.657Z,37.10
2023-03-29T04:25:52.627Z,40.80
2023-03-29T04:29:45.362Z,41.30
2023-03-29T04:32:54.513Z,43.50
2023-03-29T04:36:25.343Z,43.40
2023-03-29T04:39:34.723Z,44.30
2023-03-29T04:42:19.403Z,50.20
2023-03-29T04:48:12.952Z,48.00
2023-03-29T04:51:45.170Z,61.30
2023-03-29T04:54:51.953Z,69.50
2023-03-29T04:58:32.270Z,101.30
2023-03-29T05:02:10.243Z,94.10
2023-03-29T05:05:18.587Z,75.40
2023-03-29T05:09:08.542Z,88.30
2023-03-29T05:12:40.472Z,46.90
2023-03-29T05:15:58.213Z,58.50
2023-03-29T05:19:26.232Z,75.30
2023-03-29T05:22:41.230Z,59.70
2023-03-29T05:26:16.315Z,41.40
2023-03-29T05:29:29.784Z,48.20
2023-03-29T05:32:38.261Z,48.80
2023-03-29T05:36:16.459Z,48.10
2023-03-29T05:42:06.101Z,53.10
2023-03-29T05:44:55.605Z,44.50
2023-03-29T05:47:37.002Z,54.70
2023-03-29T05:51:08.206Z,58.10
2023-03-29T05:53:53.720Z,56.90
2023-03-29T05:57:32.805Z,62.20
2023-03-29T06:00:37.495Z,62.30
2023-03-29T06:04:06.372Z,62.30
2023-03-29T06:07:13.281Z,48.90
2023-03-29T06:10:25.486Z,23.00
2023-03-29T06:13:59.299Z,19.60
2023-03-29T06:16:53.139Z,12.70
2023-03-29T06:20:09.907Z,11.40
2023-03-29T06:22:55.040Z,13.80
2023-03-29T06:25:27.788Z,9.90
2023-03-29T06:28:44.639Z,12.10
2023-03-29T06:32:13.875Z,14.00
2023-03-29T06:35:50.066Z,21.50
2023-03-29T06:39:29.619Z,27.60
2023-03-29T06:43:01.205Z,20.40
2023-03-29T06:46:54.358Z,21.10
2023-03-29T06:50:15.500Z,16.60
2023-03-29T07:27:03.471Z,12.10
2023-03-29T07:30:54.764Z,10.10
2023-03-29T07:34:32.691Z,16.00
2023-03-29T07:38:18.950Z,26.20
2023-03-29T08:01:21.560Z,9.20
2023-03-29T08:04:48.284Z,10.40
2023-03-29T08:08:37.486Z,7.20
2023-03-29T08:12:29.482Z,9.60
2023-03-29T08:15:59.051Z,10.70
2023-03-29T08:19:59.582Z,8.30
2023-03-29T08:23:53.790Z,9.90
2023-03-29T08:27:25.248Z,9.00
2023-03-29T08:34:50.479Z,8.00
2023-03-29T09:06:31.346Z,7.80
2023-03-29T09:10:15.024Z,8.10
2023-03-29T09:13:37.019Z,6.40
2023-03-29T09:17:00.620Z,7.50
2023-03-29T09:21:10.370Z,7.20
2023-03-29T09:24:58.418Z,5.80
2023-03-29T09:32:37.577Z,6.10
2023-03-29T09:36:44.785Z,7.50
2023-03-29T09:40:23.921Z,5.50
2023-03-29T09:48:11.916Z,7.60
2023-03-29T09:59:50.138Z,6.20
2023-03-29T10:03:37.725Z,10.20
2023-03-29T10:19:12.033Z,7.10
2023-03-29T10:22:59.639Z,6.40
2023-03-29T10:26:41.346Z,9.20
2023-03-29T10:30:30.637Z,10.80
2023-03-29T10:34:11.740Z,6.20
2023-03-29T10:38:01.281Z,6.30
2023-03-29T10:41:43.973Z,6.80
2023-03-29T10:45:13.056Z,7.20
2023-03-29T10:48:08.903Z,7.90
2023-03-29T10:51:35.590Z,6.30
2023-03-29T10:55:16.855Z,7.90
2023-03-29T10:58:57.644Z,8.50
2023-03-29T11:02:49.762Z,7.00
2023-03-29T11:06:14.692Z,6.50
2023-03-29T11:09:48.190Z,7.80
2023-03-29T11:13:44.311Z,11.40
2023-03-29T11:33:03.908Z,7.30
2023-03-29T11:36:29.094Z,7.40
2023-03-29T11:40:30.015Z,7.20
2023-03-29T11:44:24.040Z,9.10
2023-03-29T11:47:59.746Z,9.60
2023-03-29T12:03:44.754Z,7.00
2023-03-29T12:07:18.730Z,7.40
2023-03-29T12:10:44.721Z,7.30
2023-03-29T12:13:52.570Z,5.40
2023-03-29T12:23:20.711Z,12.30
2023-03-29T12:26:52.674Z,10.10
2023-03-29T12:30:27.365Z,11.60
2023-03-29T12:34:02.947Z,8.80
2023-03-29T12:37:33.392Z,8.00
2023-03-29T12:59:41.150Z,13.10
2023-03-29T13:03:27.647Z,6.00
2023-03-29T13:07:02.619Z,8.90
2023-03-29T13:22:07.045Z,6.70
2023-03-29T13:25:49.203Z,8.40
2023-03-29T13:30:02.118Z,12.00
2023-03-29T13:33:42.407Z,7.20
2023-03-29T13:37:32.829Z,15.00
2023-03-29T13:41:34.443Z,6.80
2023-03-29T13:45:36.845Z,5.10
2023-03-29T13:52:37.350Z,6.20
2023-03-29T13:56:28.993Z,13.40
2023-03-29T14:00:19.562Z,10.10
2023-03-29T14:34:54.152Z,8.60
2023-03-29T14:38:24.685Z,6.00
2023-03-29T14:42:14.305Z,7.20
2023-03-29T14:45:46.591Z,6.50
2023-03-29T14:49:06.800Z,7.60
2023-03-29T14:52:50.322Z,10.60
2023-03-29T14:56:24.719Z,9.90
2023-03-29T14:59:47.125Z,11.00
2023-03-29T15:03:31.090Z,11.00
2023-03-29T15:06:44.282Z,8.80
2023-03-29T15:25:50.868Z,12.40
2023-03-29T15:29:30.107Z,9.90
2023-03-29T15:33:14.789Z,16.70
2023-03-29T15:36:45.662Z,10.20
2023-03-29T15:39:53.173Z,15.90
2023-03-29T15:43:27.112Z,19.10
2023-03-29T15:46:58.765Z,13.30
2023-03-29T15:54:04.384Z,13.90
2023-03-29T15:56:45.127Z,10.40
2023-03-29T15:59:13.686Z,22.50
2023-03-29T16:02:28.545Z,12.30
2023-03-29T16:05:57.393Z,11.90
2023-03-29T16:09:35.701Z,17.80
2023-03-29T16:12:37.905Z,15.40
2023-03-29T16:16:05.332Z,17.40
2023-03-29T16:19:16.010Z,18.00
2023-03-29T16:23:07.963Z,16.50
2023-03-29T16:26:39.800Z,16.30
2023-03-29T16:30:42.129Z,11.40
2023-03-29T16:34:29.764Z,12.40
2023-03-29T16:37:52.056Z,13.50
2023-03-29T16:41:23.629Z,12.00
2023-03-29T16:45:13.093Z,15.90
2023-03-29T16:48:45.970Z,14.70
2023-03-29T16:51:55.222Z,13.70
2023-03-29T16:55:43.083Z,13.10
2023-03-29T16:59:12.636Z,11.00
2023-03-29T17:02:42.095Z,12.60
2023-03-29T17:06:27.800Z,27.40
2023-03-29T17:10:10.509Z,21.20
2023-03-29T17:13:59.778Z,33.10
2023-03-29T17:17:49.237Z,15.30
2023-03-29T17:22:05.972Z,18.10
2023-03-29T17:25:30.849Z,18.90
2023-03-29T17:29:23.422Z,13.60
2023-03-29T17:33:12.646Z,18.70
2023-03-29T17:40:57.539Z,63.30
2023-03-29T17:44:46.523Z,282.10
2023-03-29T17:48:35.761Z,55.50
2023-03-29T17:52:25.366Z,24.20
2023-03-29T17:56:14.512Z,79.80
2023-03-29T17:59:52.444Z,60.30
2023-03-29T18:03:32.578Z,212.10
2023-03-29T18:07:21.617Z,212.30
2023-03-29T18:10:50.851Z,171.90
2023-03-29T18:18:47.686Z,101.30
2023-03-29T18:22:36.978Z,73.60
2023-03-29T18:26:26.921Z,103.50
2023-03-29T18:30:16.158Z,58.20
2023-03-29T18:34:05.295Z,40.40
2023-03-29T18:37:54.591Z,81.70
2023-03-29T18:41:46.416Z,76.40
2023-03-29T18:45:35.924Z,34.40
2023-03-29T18:49:17.975Z,25.10
2023-03-29T18:53:07.976Z,24.10
2023-03-29T18:56:59.383Z,22.10
2023-03-29T19:12:40.491Z,28.40
2023-03-29T19:16:23.864Z,26.80
2023-03-29T19:20:13.332Z,22.50
2023-03-29T19:23:51.726Z,19.00
2023-03-29T19:27:40.758Z,18.50
2023-03-29T19:31:29.858Z,15.40
2023-03-29T19:35:19.135Z,15.80
2023-03-29T19:39:08.316Z,17.70
2023-03-29T19:42:36.170Z,18.70
2023-03-29T19:46:08.347Z,15.10
2023-03-29T19:49:50.522Z,17.20
2023-03-29T19:52:39.065Z,19.70
2023-03-29T19:55:42.393Z,16.50
2023-03-29T19:59:19.862Z,14.70
2023-03-29T20:02:17.217Z,15.90
2023-03-29T20:05:42.207Z,15.20
2023-03-29T20:09:14.456Z,15.10
2023-03-29T20:12:57.709Z,19.00
2023-03-29T20:16:46.916Z,25.10
2023-03-29T20:20:36.483Z,39.50
2023-03-29T20:24:25.900Z,20.70
2023-03-29T20:28:15.122Z,18.90
2023-03-29T20:32:04.285Z,21.10
2023-03-29T20:35:53.719Z,16.70
2023-03-29T20:39:37.545Z,22.20
2023-03-29T20:43:26.815Z,28.40
2023-03-29T20:47:24.910Z,45.80
2023-03-29T20:51:14.139Z,28.20
2023-03-29T20:55:03.185Z,16.90
2023-03-29T20:58:52.791Z,30.00
2023-03-29T21:02:41.867Z,13.80
2023-03-29T21:06:31.089Z,15.80
2023-03-29T21:10:20.315Z,12.60
2023-03-29T21:18:05.266Z,14.50
2023-03-29T21:21:47.211Z,19.90
2023-03-29T21:25:36.178Z,16.60
2023-03-29T21:29:24.650Z,11.70
2023-03-29T21:32:38.678Z,12.40
2023-03-29T21:36:27.656Z,9.00
2023-03-29T21:40:44.102Z,13.30
2023-03-29T21:44:34.245Z,18.50
2023-03-29T21:51:45.501Z,13.80
2023-03-29T21:55:34.566Z,12.30
2023-03-29T21:59:23.550Z,12.30
2023-03-29T22:03:12.577Z,9.70
2023-03-29T22:07:00.143Z,14.40
2023-03-29T22:22:19.847Z,14.20
2023-03-29T22:26:08.982Z,15.70
2023-03-29T22:29:58.153Z,12.90
2023-03-29T22:33:47.055Z,13.40
2023-03-29T22:36:37.159Z,9.70
2023-03-29T22:39:45.773Z,8.90
2023-03-29T23:10:31.984Z,13.40
2023-03-29T23:14:21.334Z,6.50
2023-03-29T23:18:10.471Z,9.90
2023-03-29T23:21:59.762Z,7.60
2023-03-29T23:25:48.989Z,11.30
2023-03-29T23:29:38.125Z,6.40
2023-03-29T23:33:27.950Z,7.60
2023-03-29T23:37:16.927Z,8.80
2023-03-29T23:41:09.126Z,7.80
2023-03-29T23:44:58.442Z,6.00
2023-03-29T23:48:47.399Z,9.00
2023-03-29T23:52:36.885Z,5.60
2023-03-29T23:56:25.932Z,8.60
